Time;durP1;ratioP1;P1;durP2;ratioP2;P2;SDS_P1;SDS_P2;PMS_P1;PMS_P2;Temp;Humidity;BMP_temperature;BMP_pressure;BME280_temperature;BME280_humidity;BME280_pressure;Samples;Min_cycle;Max_cycle;Signal;HPM_P1;HPM_P2
2022/05/09 00:00:49;;;;;;;8.07;3.80;;;12.60;95.40;;;;;;2089056;28;20033;-77
2022/05/09 00:01:50;;;;;;;7.90;4.00;;;12.50;94.80;;;;;;2090121;28;20070;-77
2022/05/09 00:02:51;;;;;;;6.22;3.63;;;12.50;94.70;;;;;;2089033;28;20035;-76
2022/05/09 00:03:51;;;;;;;8.20;3.42;;;12.50;94.60;;;;;;2080975;28;20040;-77
2022/05/09 00:04:52;;;;;;;5.10;3.45;;;12.40;94.70;;;;;;2089305;28;20067;-77
2022/05/09 00:05:52;;;;;;;6.93;3.75;;;12.40;94.60;;;;;;2089196;28;20118;-77
2022/05/09 00:06:53;;;;;;;5.20;3.45;;;12.40;94.30;;;;;;2089608;28;20120;-78
2022/05/09 00:07:55;;;;;;;7.18;3.80;;;12.30;94.70;;;;;;2081879;28;20030;-77
2022/05/09 00:08:55;;;;;;;7.35;3.60;;;12.30;94.30;;;;;;2073725;28;20034;-78
2022/05/09 00:09:56;;;;;;;6.88;3.25;;;12.30;94.10;;;;;;2081419;28;20021;-81
2022/05/09 00:10:56;;;;;;;6.55;3.25;;;12.30;93.70;;;;;;2081416;28;20026;-78
2022/05/09 00:11:57;;;;;;;5.72;3.42;;;12.30;93.50;;;;;;2082628;28;20131;-78
2022/05/09 00:12:58;;;;;;;7.60;3.78;;;12.20;93.40;;;;;;2090745;28;20084;-77
2022/05/09 00:13:58;;;;;;;7.15;3.67;;;12.20;93.80;;;;;;2091315;28;20032;-76
2022/05/09 00:14:59;;;;;;;5.88;3.55;;;12.10;93.50;;;;;;2090372;28;20025;-79
2022/05/09 00:16:00;;;;;;;5.47;3.30;;;12.10;93.60;;;;;;2092156;28;20037;-79
2022/05/09 00:17:00;;;;;;;5.88;3.20;;;12.00;93.50;;;;;;2092107;28;20380;-77
2022/05/09 00:18:01;;;;;;;7.57;3.75;;;12.10;93.30;;;;;;2091476;28;20049;-78
2022/05/09 00:19:03;;;;;;;5.30;3.30;;;12.00;93.20;;;;;;2083235;28;20033;-80
2022/05/09 00:20:05;;;;;;;5.32;3.10;;;12.00;93.00;;;;;;2090855;28;20059;-77
2022/05/09 00:21:06;;;;;;;7.85;3.40;;;12.00;93.00;;;;;;2094673;28;20064;-79
2022/05/09 00:22:07;;;;;;;7.80;3.40;;;12.00;93.10;;;;;;2091899;28;20041;-78
2022/05/09 00:23:07;;;;;;;8.10;3.40;;;11.90;93.50;;;;;;2083552;28;20140;-80
2022/05/09 00:24:12;;;;;;;5.25;3.33;;;11.90;93.60;;;;;;2082414;28;20041;-79
2022/05/09 00:25:13;;;;;;;7.95;3.50;;;11.90;93.70;;;;;;2083877;28;20061;-79
2022/05/09 00:26:14;;;;;;;5.47;3.38;;;11.90;93.60;;;;;;2092404;28;20028;-79
2022/05/09 00:27:15;;;;;;;6.60;3.38;;;11.90;93.70;;;;;;2092677;28;20036;-78
2022/05/09 00:28:15;;;;;;;7.20;3.42;;;11.90;93.60;;;;;;2092040;28;20044;-78
2022/05/09 00:29:17;;;;;;;5.43;3.20;;;11.90;93.60;;;;;;2082872;28;20017;-78
2022/05/09 00:30:18;;;;;;;8.20;3.03;;;11.90;93.70;;;;;;2082789;28;20030;-77
2022/05/09 00:31:18;;;;;;;4.57;2.95;;;11.90;93.60;;;;;;2082726;28;20041;-80
2022/05/09 00:32:19;;;;;;;5.45;3.10;;;11.80;93.50;;;;;;2090812;28;20045;-77
2022/05/09 00:33:20;;;;;;;5.95;3.17;;;11.90;93.60;;;;;;2082143;28;20084;-78
2022/05/09 00:34:21;;;;;;;5.32;3.03;;;11.90;93.60;;;;;;2081413;28;20034;-78
2022/05/09 00:35:22;;;;;;;3.65;2.70;;;11.80;93.80;;;;;;2082741;28;20140;-78
2022/05/09 00:36:23;;;;;;;4.72;2.80;;;11.80;93.80;;;;;;2090631;28;20032;-79
2022/05/09 00:37:23;;;;;;;3.80;2.60;;;11.80;93.90;;;;;;2081657;28;20072;-78
2022/05/09 00:38:25;;;;;;;5.97;2.92;;;11.80;94.00;;;;;;2081993;28;20022;-79
2022/05/09 00:39:26;;;;;;;4.07;2.80;;;11.80;94.20;;;;;;2082201;28;20171;-80
2022/05/09 00:40:26;;;;;;;6.15;3.10;;;11.70;94.80;;;;;;2091624;28;20556;-78
2022/05/09 00:41:40;;;;;;;5.75;2.83;;;11.80;96.10;;;;;;2091707;28;20542;-79
2022/05/09 00:42:50;;;;;;;5.90;3.30;;;11.70;96.80;;;;;;2094872;28;20075;-75
2022/05/09 00:43:52;;;;;;;5.90;3.20;;;11.70;98.00;;;;;;2097150;28;20039;-74
2022/05/09 00:44:52;;;;;;;5.35;3.03;;;11.70;98.80;;;;;;2091545;28;20089;-76
2022/05/09 00:45:53;;;;;;;7.30;3.17;;;11.70;99.40;;;;;;2095180;28;20090;-77
2022/05/09 00:46:56;;;;;;;7.28;3.25;;;11.70;99.80;;;;;;2096314;28;20032;-76
2022/05/09 00:47:56;;;;;;;5.72;3.38;;;11.60;99.90;;;;;;2095048;28;20029;-77
2022/05/09 00:49:03;;;;;;;11.80;3.30;;;11.70;99.90;;;;;;2092148;28;20045;-76
2022/05/09 00:50:06;;;;;;;7.85;3.67;;;11.60;99.90;;;;;;2089085;28;20028;-76
2022/05/09 00:51:08;;;;;;;7.30;3.35;;;11.60;99.90;;;;;;2089572;28;20033;-77
2022/05/09 00:52:12;;;;;;;3.97;3.10;;;11.50;99.90;;;;;;2086655;28;20029;-76
2022/05/09 00:53:13;;;;;;;6.95;3.10;;;11.50;99.80;;;;;;2086575;28;20208;-77
2022/05/09 00:54:13;;;;;;;5.00;3.05;;;11.50;99.80;;;;;;2080245;28;20115;-75
2022/05/09 00:55:27;;;;;;;5.07;3.17;;;11.50;99.90;;;;;;2089031;28;20048;-75
2022/05/09 00:56:37;;;;;;;7.38;3.65;;;11.50;99.90;;;;;;2074537;28;20038;-78
2022/05/09 00:57:54;;;;;;;6.15;3.63;;;11.50;99.90;;;;;;2075392;28;20575;-78
2022/05/09 00:59:00;;;;;;;5.43;3.50;;;11.50;99.90;;;;;;2089682;28;20657;-76
2022/05/09 01:00:07;;;;;;;6.75;3.65;;;11.40;99.90;;;;;;2088575;28;20025;-76
2022/05/09 01:01:11;;;;;;;5.47;3.40;;;11.40;99.90;;;;;;2089208;28;20469;-77
2022/05/09 01:02:14;;;;;;;5.88;3.47;;;11.40;99.90;;;;;;2080896;28;20534;-76
2022/05/09 01:03:21;;;;;;;6.43;3.70;;;11.40;99.90;;;;;;2073365;28;20116;-76
2022/05/09 01:04:26;;;;;;;6.80;3.85;;;11.40;99.90;;;;;;2075085;28;20084;-76
2022/05/09 01:05:30;;;;;;;5.93;3.67;;;11.30;99.90;;;;;;2082427;28;20033;-77
2022/05/09 01:06:32;;;;;;;4.25;3.42;;;11.30;99.90;;;;;;2083044;28;20057;-77
2022/05/09 01:07:32;;;;;;;5.93;3.40;;;11.30;99.90;;;;;;2090103;28;20017;-78
2022/05/09 01:08:33;;;;;;;6.25;3.65;;;11.30;99.90;;;;;;2091529;28;20127;-78
2022/05/09 01:09:34;;;;;;;7.40;3.55;;;11.30;99.90;;;;;;2082580;28;20025;-76
2022/05/09 01:10:38;;;;;;;6.47;3.72;;;11.30;99.90;;;;;;2082577;28;20036;-78
2022/05/09 01:11:42;;;;;;;6.68;3.50;;;11.20;99.90;;;;;;2090602;28;20665;-77
2022/05/09 01:12:45;;;;;;;5.22;3.47;;;11.20;99.90;;;;;;2090467;28;20029;-77
2022/05/09 01:13:51;;;;;;;5.30;3.30;;;11.20;99.90;;;;;;2090901;28;20395;-77
2022/05/09 01:14:54;;;;;;;5.50;3.40;;;11.20;99.90;;;;;;2090442;28;20718;-77
2022/05/09 01:15:54;;;;;;;5.15;3.13;;;11.20;99.90;;;;;;2091018;28;20028;-78
2022/05/09 01:16:57;;;;;;;6.10;3.10;;;11.20;99.90;;;;;;2091078;28;20025;-76
2022/05/09 01:17:59;;;;;;;6.43;3.60;;;11.20;99.90;;;;;;2090920;28;20043;-77
2022/05/09 01:19:06;;;;;;;7.10;3.78;;;11.20;99.90;;;;;;2090643;28;20041;-76
2022/05/09 01:20:09;;;;;;;6.07;3.28;;;11.20;99.90;;;;;;2090846;28;20025;-77
2022/05/09 01:21:38;;;;;;;9.02;3.65;;;11.20;99.90;;;;;;2090638;28;20090;-76
2022/05/09 01:22:41;;;;;;;5.07;3.38;;;11.20;99.90;;;;;;2087640;28;20422;-78
2022/05/09 01:23:42;;;;;;;5.90;3.28;;;11.20;99.90;;;;;;2089115;28;20113;-77
2022/05/09 01:24:43;;;;;;;5.05;3.40;;;11.10;99.90;;;;;;2090017;28;20081;-78
2022/05/09 01:25:44;;;;;;;4.00;3.20;;;11.20;99.90;;;;;;2089898;28;20021;-76
2022/05/09 01:26:45;;;;;;;4.53;3.20;;;11.20;99.90;;;;;;2092571;28;20033;-77
2022/05/09 01:27:47;;;;;;;6.10;3.83;;;11.10;99.90;;;;;;2095506;28;20025;-76
2022/05/09 01:28:48;;;;;;;6.18;3.50;;;11.10;99.90;;;;;;2095188;28;20029;-76
2022/05/09 01:30:04;;;;;;;7.45;3.80;;;11.20;99.90;;;;;;2082771;28;20018;-75
2022/05/09 01:31:09;;;;;;;5.78;3.70;;;11.20;99.90;;;;;;2077898;28;20034;-79
2022/05/09 01:32:13;;;;;;;6.22;3.67;;;11.20;99.90;;;;;;2090852;28;20025;-78
2022/05/09 01:33:24;;;;;;;6.32;3.55;;;11.10;99.90;;;;;;2090788;28;20025;-78
2022/05/09 01:34:26;;;;;;;7.00;4.00;;;11.10;99.90;;;;;;2090260;28;20037;-78
2022/05/09 01:35:34;;;;;;;7.47;3.88;;;11.10;99.90;;;;;;2089847;28;20017;-78
2022/05/09 01:36:36;;;;;;;5.80;3.63;;;11.00;99.90;;;;;;2089641;28;20021;-77
2022/05/09 01:37:39;;;;;;;7.60;3.90;;;11.00;99.90;;;;;;2088658;28;20029;-75
2022/05/09 01:38:45;;;;;;;6.13;3.97;;;11.00;99.90;;;;;;2088462;28;20029;-77
2022/05/09 01:39:46;;;;;;;7.55;4.00;;;11.00;99.90;;;;;;2088541;28;20032;-75
2022/05/09 01:40:47;;;;;;;8.85;4.05;;;11.00;99.90;;;;;;2088933;28;20045;-75
2022/05/09 01:41:48;;;;;;;6.85;3.83;;;11.00;99.90;;;;;;2090333;28;20021;-79
2022/05/09 01:42:48;;;;;;;7.07;4.25;;;11.00;99.90;;;;;;2090686;28;20141;-77
2022/05/09 01:43:51;;;;;;;6.72;4.10;;;10.90;99.90;;;;;;2089355;28;20644;-78
2022/05/09 01:44:52;;;;;;;6.60;4.05;;;10.90;99.90;;;;;;2079605;28;20029;-77
2022/05/09 01:45:53;;;;;;;7.25;4.40;;;10.90;99.90;;;;;;2071916;28;20133;-76
2022/05/09 01:49:34;;;;;;;6.00;3.83;;;10.90;99.90;;;;;;2089455;28;20021;-75
2022/05/09 01:50:34;;;;;;;7.15;3.92;;;10.90;99.90;;;;;;2088886;28;20033;-77
2022/05/09 01:51:37;;;;;;;6.90;3.90;;;10.80;99.90;;;;;;2080415;28;20109;-77
2022/05/09 01:52:39;;;;;;;7.60;3.92;;;10.80;99.90;;;;;;2089195;28;20033;-78
2022/05/09 01:53:39;;;;;;;7.68;4.00;;;10.80;99.90;;;;;;2088580;28;20403;-76
2022/05/09 01:54:43;;;;;;;6.35;3.97;;;10.80;99.90;;;;;;2088033;28;20047;-76
2022/05/09 01:55:43;;;;;;;6.50;4.20;;;10.80;99.90;;;;;;2080479;28;20037;-75
2022/05/09 01:56:44;;;;;;;6.78;3.90;;;10.80;99.90;;;;;;2080054;28;20025;-75
2022/05/09 01:57:45;;;;;;;7.53;4.35;;;10.80;99.90;;;;;;2079849;28;20060;-79
2022/05/09 01:58:45;;;;;;;7.82;4.30;;;10.70;99.90;;;;;;2088391;28;20031;-77
2022/05/09 01:59:46;;;;;;;6.35;4.38;;;10.70;99.90;;;;;;2080425;28;20044;-77
2022/05/09 02:00:46;;;;;;;6.80;4.13;;;10.70;99.90;;;;;;2090149;28;20025;-77
2022/05/09 02:01:54;;;;;;;8.93;4.28;;;10.70;99.90;;;;;;2090247;28;20682;-77
2022/05/09 02:02:57;;;;;;;7.00;4.20;;;10.70;99.90;;;;;;2090001;28;20033;-77
2022/05/09 02:03:57;;;;;;;9.13;4.43;;;10.60;99.90;;;;;;2090344;28;20029;-77
2022/05/09 02:04:58;;;;;;;7.43;4.07;;;10.60;99.90;;;;;;2088887;28;20071;-76
2022/05/09 02:06:00;;;;;;;6.38;4.10;;;10.60;99.90;;;;;;2088482;28;20021;-76
2022/05/09 02:07:01;;;;;;;7.38;4.32;;;10.60;99.90;;;;;;2088777;28;20127;-76
2022/05/09 02:08:02;;;;;;;6.20;4.25;;;10.60;99.90;;;;;;2088567;28;20029;-77
2022/05/09 02:09:02;;;;;;;7.35;4.35;;;10.60;99.90;;;;;;2088927;28;20419;-78
2022/05/09 02:10:04;;;;;;;6.97;4.05;;;10.60;99.90;;;;;;2088141;28;20099;-78
2022/05/09 02:11:04;;;;;;;7.38;4.25;;;10.60;99.90;;;;;;2088292;28;20029;-78
2022/05/09 02:12:06;;;;;;;7.80;4.65;;;10.60;99.90;;;;;;2089573;28;20036;-78
2022/05/09 02:13:06;;;;;;;7.68;4.30;;;10.60;99.90;;;;;;2089246;28;20049;-79
2022/05/09 02:14:07;;;;;;;5.45;3.90;;;10.60;99.90;;;;;;2088858;28;20055;-79
2022/05/09 02:15:09;;;;;;;6.57;4.15;;;10.60;99.90;;;;;;2089630;28;20090;-80
2022/05/09 02:16:10;;;;;;;7.32;4.07;;;10.60;99.90;;;;;;2089236;28;20024;-80
2022/05/09 02:17:12;;;;;;;9.02;4.93;;;10.60;99.90;;;;;;2080482;28;20041;-78
2022/05/09 02:18:12;;;;;;;8.50;4.20;;;10.60;99.90;;;;;;2080854;28;20072;-77
2022/05/09 02:19:13;;;;;;;7.10;4.13;;;10.50;99.90;;;;;;2089425;28;20058;-78
2022/05/09 02:20:14;;;;;;;5.30;3.70;;;10.50;99.90;;;;;;2079774;28;20419;-80
2022/05/09 02:21:15;;;;;;;6.10;4.18;;;10.50;99.90;;;;;;2072567;28;20034;-77
2022/05/09 02:22:15;;;;;;;8.63;4.28;;;10.50;99.90;;;;;;2080389;28;20037;-78
2022/05/09 02:23:17;;;;;;;7.65;4.30;;;10.50;99.90;;;;;;2088213;28;20040;-75
2022/05/09 02:24:17;;;;;;;6.82;4.22;;;10.50;99.90;;;;;;2080043;28;20061;-75
2022/05/09 02:25:29;;;;;;;6.65;4.47;;;10.50;99.90;;;;;;2080755;28;20036;-75
2022/05/09 02:26:30;;;;;;;7.90;4.40;;;10.50;99.90;;;;;;2073528;28;20459;-78
2022/05/09 02:27:31;;;;;;;6.47;4.20;;;10.40;99.90;;;;;;2080315;28;20032;-75
2022/05/09 02:28:32;;;;;;;6.45;4.05;;;10.50;99.90;;;;;;2088829;28;20116;-75
2022/05/09 02:29:33;;;;;;;7.13;4.20;;;10.40;99.90;;;;;;2072138;28;20571;-78
2022/05/09 02:30:34;;;;;;;8.27;4.80;;;10.40;99.90;;;;;;2072145;28;20026;-77
2022/05/09 02:31:34;;;;;;;8.45;4.57;;;10.40;99.90;;;;;;2089182;28;20033;-76
2022/05/09 02:32:35;;;;;;;7.43;4.75;;;10.40;99.90;;;;;;2089027;28;20032;-76
2022/05/09 02:33:36;;;;;;;7.10;4.80;;;10.40;99.90;;;;;;2089354;28;20036;-76
2022/05/09 02:34:37;;;;;;;9.43;4.68;;;10.40;99.90;;;;;;2090340;28;20045;-78
2022/05/09 02:35:38;;;;;;;13.93;4.90;;;10.40;99.90;;;;;;2091335;28;20022;-77
2022/05/09 02:36:40;;;;;;;16.58;5.38;;;10.40;99.90;;;;;;2091008;28;20063;-75
2022/05/09 02:37:41;;;;;;;12.13;4.90;;;10.40;99.90;;;;;;2092655;28;20104;-76
2022/05/09 02:38:42;;;;;;;13.45;4.90;;;10.40;99.90;;;;;;2091059;28;20040;-77
2022/05/09 02:39:42;;;;;;;11.07;5.07;;;10.30;99.90;;;;;;2092335;28;20021;-77
2022/05/09 02:40:43;;;;;;;10.52;4.80;;;10.30;99.90;;;;;;2091869;28;20033;-75
2022/05/09 02:41:43;;;;;;;9.40;4.70;;;10.30;99.90;;;;;;2083511;28;20102;-75
2022/05/09 02:42:44;;;;;;;7.55;4.70;;;10.20;99.90;;;;;;2092634;28;20037;-75
2022/05/09 02:43:45;;;;;;;11.57;4.78;;;10.20;99.90;;;;;;2093799;28;20122;-77
2022/05/09 02:44:45;;;;;;;12.20;5.47;;;10.20;99.90;;;;;;2095322;28;20059;-76
2022/05/09 02:45:46;;;;;;;10.55;5.07;;;10.20;99.90;;;;;;2095319;28;20040;-76
2022/05/09 02:46:47;;;;;;;10.63;5.50;;;10.20;99.90;;;;;;2096857;28;20036;-76
2022/05/09 02:47:48;;;;;;;9.88;5.20;;;10.20;99.90;;;;;;2096964;28;20052;-76
2022/05/09 02:48:48;;;;;;;10.70;4.90;;;10.20;99.90;;;;;;2088403;28;20029;-78
2022/05/09 02:49:49;;;;;;;8.50;4.85;;;10.10;99.90;;;;;;2096680;28;20029;-77
2022/05/09 02:50:50;;;;;;;10.68;4.72;;;10.10;99.90;;;;;;2096937;28;20301;-77
2022/05/09 02:51:52;;;;;;;10.68;5.20;;;10.10;99.90;;;;;;2096737;28;20075;-76
2022/05/09 02:52:54;;;;;;;9.65;4.90;;;10.10;99.90;;;;;;2088031;28;20025;-77
2022/05/09 02:53:56;;;;;;;14.82;5.32;;;10.00;99.90;;;;;;2081665;28;20065;-77
2022/05/09 02:54:57;;;;;;;13.75;5.25;;;10.00;99.90;;;;;;2087599;28;20120;-76
2022/05/09 02:55:58;;;;;;;14.25;5.47;;;10.00;99.90;;;;;;2079293;28;20116;-76
2022/05/09 02:56:58;;;;;;;11.07;5.68;;;9.90;99.90;;;;;;2071448;28;20022;-76
2022/05/09 02:58:04;;;;;;;12.80;5.25;;;9.90;99.90;;;;;;2080299;28;20415;-76
2022/05/09 02:59:04;;;;;;;15.77;5.57;;;9.90;99.90;;;;;;2088477;28;20029;-76
2022/05/09 03:00:09;;;;;;;17.95;5.65;;;9.90;99.90;;;;;;2088391;28;20035;-75
2022/05/09 03:01:09;;;;;;;13.02;5.35;;;9.90;99.90;;;;;;2080686;28;20499;-76
2022/05/09 03:02:10;;;;;;;17.42;5.70;;;9.90;99.90;;;;;;2080333;28;20080;-77
2022/05/09 03:04:39;;;;;;;18.08;5.57;;;9.80;99.90;;;;;;2088336;28;20475;-76
2022/05/09 03:05:41;;;;;;;14.38;5.43;;;9.80;99.90;;;;;;2089200;28;20028;-76
2022/05/09 03:06:41;;;;;;;12.57;5.35;;;9.80;99.90;;;;;;2088344;28;20056;-76
2022/05/09 03:07:42;;;;;;;11.43;5.45;;;9.80;99.90;;;;;;2088184;28;20017;-75
2022/05/09 03:08:44;;;;;;;11.23;5.28;;;9.80;99.90;;;;;;2088285;28;20036;-76
2022/05/09 03:09:47;;;;;;;9.63;5.10;;;9.80;99.90;;;;;;2080262;28;20040;-76
2022/05/09 03:10:48;;;;;;;12.27;5.38;;;9.90;99.90;;;;;;2080411;28;20029;-75
2022/05/09 03:11:49;;;;;;;10.55;5.22;;;9.90;99.90;;;;;;2071969;28;20026;-76
2022/05/09 03:12:50;;;;;;;11.27;5.43;;;9.90;99.90;;;;;;2088318;28;20021;-76
2022/05/09 03:13:51;;;;;;;7.78;5.13;;;9.90;99.90;;;;;;2090483;28;20078;-75
2022/05/09 03:14:52;;;;;;;14.13;5.30;;;9.90;99.90;;;;;;2094817;28;20033;-75
2022/05/09 03:15:53;;;;;;;11.05;5.20;;;9.80;99.90;;;;;;2096065;28;20108;-75
2022/05/09 03:16:53;;;;;;;9.60;5.20;;;9.90;99.90;;;;;;2087985;28;20025;-76
2022/05/09 03:17:55;;;;;;;10.25;5.60;;;9.90;99.90;;;;;;2087928;28;20040;-74
2022/05/09 03:18:55;;;;;;;11.55;5.28;;;9.90;99.90;;;;;;2096744;28;20070;-75
2022/05/09 03:19:57;;;;;;;12.25;5.45;;;9.90;99.90;;;;;;2096481;28;20418;-75
2022/05/09 03:20:58;;;;;;;11.75;5.10;;;9.80;99.90;;;;;;2095552;28;20024;-77
2022/05/09 03:22:00;;;;;;;9.35;5.50;;;9.90;99.90;;;;;;2092344;28;20109;-78
2022/05/09 03:23:02;;;;;;;9.65;5.38;;;9.90;99.90;;;;;;2092374;28;20075;-75
2022/05/09 03:24:03;;;;;;;10.43;5.70;;;9.90;99.90;;;;;;2091286;28;20039;-81
2022/05/09 03:25:05;;;;;;;12.27;6.03;;;9.90;99.90;;;;;;2081739;28;20095;-77
2022/05/09 03:26:05;;;;;;;10.45;5.57;;;9.90;99.90;;;;;;2081728;28;20037;-78
2022/05/09 03:27:06;;;;;;;10.05;5.90;;;9.90;99.90;;;;;;2089849;28;20024;-78
2022/05/09 03:28:10;;;;;;;11.60;5.85;;;9.90;99.90;;;;;;2090476;28;20072;-79
2022/05/09 03:29:11;;;;;;;10.38;5.78;;;9.90;99.90;;;;;;2089971;28;20033;-80
2022/05/09 03:30:13;;;;;;;10.38;5.65;;;9.90;99.90;;;;;;2089896;28;20820;-79
2022/05/09 03:31:14;;;;;;;10.18;5.70;;;9.90;99.90;;;;;;2090801;28;20090;-80
2022/05/09 03:32:14;;;;;;;9.98;5.43;;;9.90;99.90;;;;;;2091592;28;20505;-79
2022/05/09 03:33:16;;;;;;;8.73;5.25;;;9.90;99.90;;;;;;2092213;28;20040;-79
2022/05/09 03:34:16;;;;;;;8.93;5.35;;;9.90;99.90;;;;;;2090674;28;20114;-79
2022/05/09 03:35:17;;;;;;;9.30;5.50;;;9.90;99.90;;;;;;2091334;28;20094;-80
2022/05/09 03:36:18;;;;;;;10.88;5.57;;;9.90;99.90;;;;;;2090880;28;20025;-77
2022/05/09 03:37:18;;;;;;;9.93;5.78;;;9.90;99.90;;;;;;2091665;28;20143;-79
2022/05/09 03:38:19;;;;;;;9.25;5.35;;;9.90;99.90;;;;;;2091793;28;20036;-79
2022/05/09 03:39:20;;;;;;;9.35;5.65;;;9.90;99.90;;;;;;2091332;28;20491;-77
2022/05/09 03:40:21;;;;;;;11.18;5.93;;;9.90;99.90;;;;;;2091018;28;20051;-80
2022/05/09 03:41:22;;;;;;;9.20;6.00;;;9.90;99.90;;;;;;2090938;28;20083;-80
2022/05/09 03:42:23;;;;;;;9.55;5.53;;;9.90;99.90;;;;;;2083309;28;20083;-79
2022/05/09 03:43:24;;;;;;;8.55;5.20;;;9.80;99.90;;;;;;2091281;28;20049;-79
2022/05/09 03:44:24;;;;;;;8.15;5.32;;;9.80;99.90;;;;;;2091569;28;20025;-79
2022/05/09 03:45:25;;;;;;;8.75;5.65;;;9.80;99.90;;;;;;2091254;28;20024;-78
2022/05/09 03:46:26;;;;;;;7.97;5.30;;;9.80;99.90;;;;;;2082618;28;20029;-79
2022/05/09 03:47:26;;;;;;;7.38;5.43;;;9.70;99.90;;;;;;2081153;28;20037;-76
2022/05/09 03:48:27;;;;;;;10.23;5.78;;;9.70;99.90;;;;;;2089437;28;20032;-76
2022/05/09 03:49:28;;;;;;;9.52;5.40;;;9.80;99.90;;;;;;2080975;28;20084;-76
2022/05/09 03:50:28;;;;;;;9.43;5.03;;;9.80;99.90;;;;;;2089366;28;20081;-77
2022/05/09 03:51:30;;;;;;;8.10;5.45;;;9.80;99.90;;;;;;2089672;28;20044;-76
2022/05/09 03:52:30;;;;;;;7.72;5.50;;;9.80;99.90;;;;;;2092979;28;20526;-79
2022/05/09 03:53:31;;;;;;;11.15;5.53;;;9.80;99.90;;;;;;2091476;28;20025;-80
2022/05/09 03:54:32;;;;;;;8.52;5.43;;;9.90;99.90;;;;;;2091250;28;20036;-78
2022/05/09 03:55:33;;;;;;;6.93;5.03;;;9.80;99.90;;;;;;2092518;28;20406;-79
2022/05/09 03:56:34;;;;;;;9.30;5.50;;;9.80;99.90;;;;;;2091505;28;20136;-79
2022/05/09 03:57:44;;;;;;;9.68;5.85;;;9.90;99.90;;;;;;2082246;28;20041;-78
2022/05/09 03:58:45;;;;;;;8.75;5.53;;;9.80;99.90;;;;;;2068235;28;20423;-79
2022/05/09 03:59:45;;;;;;;10.27;5.35;;;9.80;99.90;;;;;;2082021;28;20044;-78
2022/05/09 04:00:46;;;;;;;11.00;5.68;;;9.90;99.90;;;;;;2090995;28;20052;-79
2022/05/09 04:01:46;;;;;;;10.13;5.53;;;9.90;99.90;;;;;;2082305;28;20083;-78
2022/05/09 04:02:47;;;;;;;8.30;5.57;;;9.90;99.90;;;;;;2082256;28;20087;-79
2022/05/09 04:03:48;;;;;;;7.78;5.20;;;9.90;99.90;;;;;;2090125;28;20020;-79
2022/05/09 04:04:48;;;;;;;9.48;5.55;;;9.90;99.90;;;;;;2088745;28;20024;-77
2022/05/09 04:05:49;;;;;;;8.98;5.45;;;9.90;99.90;;;;;;2089813;28;20048;-78
2022/05/09 04:06:51;;;;;;;7.72;5.53;;;9.90;99.90;;;;;;2092528;28;20499;-77
2022/05/09 04:07:52;;;;;;;8.52;5.47;;;9.90;99.90;;;;;;2083726;28;20699;-76
2022/05/09 04:08:53;;;;;;;8.85;5.55;;;10.00;99.90;;;;;;2083570;28;20044;-78
2022/05/09 04:09:56;;;;;;;9.07;5.03;;;10.00;99.90;;;;;;2084088;28;20059;-79
2022/05/09 04:10:58;;;;;;;8.68;5.47;;;10.00;99.90;;;;;;2083978;28;20080;-78
2022/05/09 04:11:58;;;;;;;9.25;5.18;;;10.00;99.90;;;;;;2082852;28;20395;-79
2022/05/09 04:13:00;;;;;;;10.65;5.40;;;10.10;99.90;;;;;;2091237;28;20113;-78
2022/05/09 04:14:00;;;;;;;9.63;5.28;;;10.20;99.90;;;;;;2089880;28;20049;-79
2022/05/09 04:17:40;;;;;;;12.77;8.02;;;11.00;99.90;;;;;;2089679;28;20542;-79
2022/05/09 04:18:42;;;;;;;13.35;7.85;;;11.30;99.90;;;;;;2089812;28;20066;-78
2022/05/09 04:19:44;;;;;;;12.98;7.00;;;11.40;99.90;;;;;;2092158;28;20041;-77
2022/05/09 04:20:46;;;;;;;9.77;6.20;;;11.50;99.90;;;;;;2091476;28;20029;-78
2022/05/09 04:21:47;;;;;;;9.30;5.85;;;11.50;99.90;;;;;;2089476;28;20119;-79
2022/05/09 04:22:48;;;;;;;10.07;5.43;;;11.60;99.90;;;;;;2089387;28;20029;-79
2022/05/09 04:23:56;;;;;;;9.95;5.40;;;11.80;99.90;;;;;;2081455;28;20756;-79
2022/05/09 04:24:57;;;;;;;7.65;4.97;;;12.00;99.90;;;;;;2080428;28;20040;-78
2022/05/09 04:25:57;;;;;;;7.60;5.28;;;12.20;99.90;;;;;;2080825;28;20040;-79
2022/05/09 04:26:59;;;;;;;10.95;5.20;;;12.50;99.90;;;;;;2089718;28;20040;-80
2022/05/09 04:28:04;;;;;;;8.60;4.63;;;12.70;99.90;;;;;;2089467;28;20029;-80
2022/05/09 04:29:05;;;;;;;8.85;4.85;;;13.00;99.90;;;;;;2089011;28;20110;-79
2022/05/09 04:30:08;;;;;;;10.15;5.50;;;13.20;99.90;;;;;;2089139;28;20601;-77
2022/05/09 04:31:08;;;;;;;7.65;4.78;;;13.40;99.90;;;;;;2089171;28;20036;-79
2022/05/09 04:32:09;;;;;;;8.82;5.10;;;13.60;99.90;;;;;;2089103;28;20029;-79
2022/05/09 04:33:10;;;;;;;7.03;4.63;;;13.80;99.90;;;;;;2090317;28;20175;-80
2022/05/09 04:34:10;;;;;;;7.30;4.65;;;14.00;98.80;;;;;;2088499;28;20052;-77
2022/05/09 04:35:20;;;;;;;9.88;4.85;;;14.20;97.70;;;;;;2089396;28;20021;-80
2022/05/09 04:36:22;;;;;;;6.72;4.53;;;14.30;96.60;;;;;;2089807;28;20029;-78
2022/05/09 04:37:22;;;;;;;9.32;5.30;;;14.50;95.60;;;;;;2080511;28;20458;-77
2022/05/09 04:38:24;;;;;;;8.52;4.85;;;14.70;94.50;;;;;;2080793;28;20055;-78
2022/05/09 04:39:24;;;;;;;8.60;5.18;;;14.80;93.70;;;;;;2089719;28;20434;-80
2022/05/09 04:40:32;;;;;;;8.88;5.03;;;14.90;92.70;;;;;;2089378;28;20124;-78
2022/05/09 04:41:33;;;;;;;8.18;5.07;;;15.00;92.20;;;;;;2081170;28;20029;-79
2022/05/09 04:42:33;;;;;;;6.65;4.47;;;15.10;90.90;;;;;;2080852;28;20061;-80
2022/05/09 04:43:36;;;;;;;8.85;5.30;;;15.30;90.00;;;;;;2080778;28;20109;-79
2022/05/09 04:44:36;;;;;;;10.25;5.50;;;15.30;88.20;;;;;;2080424;28;20026;-78
2022/05/09 04:45:38;;;;;;;10.98;5.10;;;15.40;86.30;;;;;;2088831;28;20032;-80
2022/05/09 04:46:40;;;;;;;12.38;5.22;;;15.50;84.80;;;;;;2090074;28;20083;-80
2022/05/09 04:47:41;;;;;;;8.63;5.43;;;15.50;84.00;;;;;;2090167;28;20150;-78
2022/05/09 04:48:43;;;;;;;9.45;5.07;;;15.50;82.30;;;;;;2089167;28;20755;-79
2022/05/09 04:49:44;;;;;;;8.48;5.22;;;15.60;81.70;;;;;;2089601;28;20063;-77
2022/05/09 04:50:45;;;;;;;9.88;5.25;;;15.60;81.10;;;;;;2090074;28;20029;-79
2022/05/09 04:51:45;;;;;;;8.55;5.35;;;15.60;81.10;;;;;;2089652;28;20036;-78
2022/05/09 04:52:46;;;;;;;9.38;5.32;;;15.60;81.30;;;;;;2080821;28;20024;-77
2022/05/09 04:53:49;;;;;;;6.93;4.63;;;15.60;81.70;;;;;;2080747;28;20036;-77
2022/05/09 04:54:50;;;;;;;8.88;4.80;;;15.70;81.90;;;;;;2088354;28;20546;-77
2022/05/09 04:55:50;;;;;;;8.25;5.05;;;15.70;81.50;;;;;;2088595;28;20040;-78
2022/05/09 04:56:51;;;;;;;10.35;5.13;;;15.80;82.00;;;;;;2089592;28;20086;-77
2022/05/09 04:57:53;;;;;;;9.95;4.75;;;15.90;81.60;;;;;;2088946;28;20021;-79
2022/05/09 04:58:53;;;;;;;8.00;4.72;;;15.90;80.80;;;;;;2072360;28;20483;-75
2022/05/09 04:59:54;;;;;;;7.15;4.55;;;16.00;81.30;;;;;;2072365;28;20101;-77
2022/05/09 05:00:54;;;;;;;11.23;5.15;;;16.10;80.50;;;;;;2078318;28;20571;-78
2022/05/09 05:01:55;;;;;;;8.73;4.63;;;16.00;79.80;;;;;;2090211;28;20174;-78
2022/05/09 05:02:57;;;;;;;9.25;4.70;;;16.10;80.10;;;;;;2090616;28;20060;-78
2022/05/09 05:03:58;;;;;;;6.68;4.55;;;16.10;80.00;;;;;;2081958;28;20132;-78
2022/05/09 05:04:58;;;;;;;8.10;4.75;;;16.20;79.30;;;;;;2081493;28;20036;-78
2022/05/09 05:05:59;;;;;;;9.85;4.60;;;16.20;78.30;;;;;;2090672;28;20634;-78
2022/05/09 05:07:00;;;;;;;7.72;4.60;;;16.30;78.20;;;;;;2090606;28;20074;-78
2022/05/09 05:08:01;;;;;;;6.82;4.55;;;16.40;78.00;;;;;;2090754;28;20063;-78
2022/05/09 05:09:02;;;;;;;8.98;4.78;;;16.50;77.80;;;;;;2090387;28;20037;-81
2022/05/09 05:10:04;;;;;;;12.63;4.95;;;16.60;78.00;;;;;;2089939;28;20057;-77
2022/05/09 05:11:05;;;;;;;9.35;4.90;;;16.60;76.60;;;;;;2082506;28;20266;-78
2022/05/09 05:12:06;;;;;;;9.93;5.13;;;16.60;75.50;;;;;;2082878;28;20018;-77
2022/05/09 05:13:09;;;;;;;8.88;4.88;;;16.60;75.60;;;;;;2083191;28;20038;-78
2022/05/09 05:14:09;;;;;;;8.35;5.10;;;16.60;75.70;;;;;;2091555;28;20037;-77
2022/05/09 05:15:11;;;;;;;8.35;4.60;;;16.70;75.00;;;;;;2084132;28;20246;-78
2022/05/09 05:16:11;;;;;;;7.75;5.13;;;16.70;74.70;;;;;;2084128;28;20124;-77
2022/05/09 05:17:12;;;;;;;7.90;5.00;;;16.80;74.30;;;;;;2086867;28;20034;-76
2022/05/09 05:18:13;;;;;;;8.05;5.18;;;16.80;74.20;;;;;;2082588;28;20458;-78
2022/05/09 05:19:13;;;;;;;8.68;5.13;;;16.80;73.70;;;;;;2081963;28;20028;-77
2022/05/09 05:20:15;;;;;;;10.80;5.35;;;16.90;74.00;;;;;;2081159;28;20037;-76
2022/05/09 05:21:16;;;;;;;10.82;5.20;;;17.10;73.30;;;;;;2080540;28;20070;-77
2022/05/09 05:22:16;;;;;;;8.15;5.13;;;17.00;72.90;;;;;;2080526;28;20029;-77
2022/05/09 05:23:18;;;;;;;7.65;4.88;;;17.00;72.90;;;;;;2072482;28;20128;-79
2022/05/09 05:24:18;;;;;;;8.77;5.07;;;17.10;73.10;;;;;;2080120;28;20037;-77
2022/05/09 05:25:26;;;;;;;7.88;5.05;;;17.10;73.10;;;;;;2080539;28;20523;-78
2022/05/09 05:26:27;;;;;;;11.43;5.35;;;17.20;73.20;;;;;;2080187;28;20427;-76
2022/05/09 05:27:27;;;;;;;12.07;6.10;;;17.30;73.00;;;;;;2063772;28;20030;-74
2022/05/09 05:28:32;;;;;;;8.43;5.40;;;17.30;72.00;;;;;;2071787;28;20026;-75
2022/05/09 05:29:33;;;;;;;9.73;5.30;;;17.40;71.70;;;;;;2079682;28;20563;-74